Weather in selectable METAR weather stations Station search

1) Select the Continent / Group:

[Europe]  [Asia]  [Africa]  [North America]  [South America]  
[Central America and Caribbean]  [Oceania]  [Antarctica]  
2) Select the Weather station (City):


METAR = EFHK 201050Z 12005KT 3000 -SN OVC003 00/00 Q0980 TEMPO 4000

STATIONEFHK
NAMEHelsinki/Vantaa Arpt, UU, FI
OBSERVED20.01.2022 12:50 (20.01.2022 10:50 UTC), 4 min ago
TEMPERATURE0.0°C ( 32°F)
WINDCHILL-3.1 °C (26 °F)
WINDESE (120 degrees) at 6 MPH (5 knots; 2.6 m/s)
HUMIDITY100%
PRESSURE980 hPa
CONDITIONSlight snow
Click here to search the weather station or to give the station identifier
(four-character ICAO Location Indicator) for weather data.